createdAt,value
2023-11-24T00:00:38.040Z,80.92
2023-11-24T00:03:30.100Z,81.00
2023-11-24T00:06:02.093Z,81.36
2023-11-24T00:08:34.122Z,81.59
2023-11-24T00:11:06.351Z,82.08
2023-11-24T00:13:38.337Z,82.75
2023-11-24T00:16:11.229Z,82.95
2023-11-24T00:18:43.461Z,83.36
2023-11-24T00:21:16.582Z,83.15
2023-11-24T00:23:48.708Z,83.84
2023-11-24T00:26:22.348Z,83.58
2023-11-24T00:29:02.009Z,83.61
2023-11-24T00:31:34.240Z,83.65
2023-11-24T00:34:09.423Z,83.96
2023-11-24T00:36:41.598Z,83.87
2023-11-24T00:39:14.589Z,84.17
2023-11-24T00:41:46.586Z,84.69
2023-11-24T00:44:18.559Z,85.26
2023-11-24T00:46:50.541Z,85.93
2023-11-24T00:49:22.471Z,86.64
2023-11-24T00:51:54.472Z,86.91
2023-11-24T00:54:26.602Z,87.39
2023-11-24T00:56:59.593Z,87.80
2023-11-24T00:59:32.490Z,87.78
2023-11-24T01:02:05.802Z,88.19
2023-11-24T01:04:37.802Z,88.29
2023-11-24T01:07:09.822Z,88.78
2023-11-24T01:09:42.795Z,89.10
2023-11-24T01:12:15.510Z,88.68
2023-11-24T01:14:47.547Z,89.15
2023-11-24T01:17:20.264Z,88.90
2023-11-24T01:19:52.268Z,88.56
2023-11-24T01:22:26.082Z,88.63
2023-11-24T01:24:58.183Z,89.05
2023-11-24T01:27:30.164Z,89.11
2023-11-24T01:30:02.450Z,89.86
2023-11-24T01:32:34.438Z,89.76
2023-11-24T01:35:08.208Z,89.93
2023-11-24T01:37:40.139Z,90.74
2023-11-24T01:40:13.936Z,90.32
2023-11-24T01:42:45.914Z,90.28
2023-11-24T01:45:18.107Z,90.97
2023-11-24T01:47:50.130Z,91.19
2023-11-24T01:50:23.154Z,91.29
2023-11-24T01:52:55.666Z,91.55
2023-11-24T01:55:28.103Z,91.47
2023-11-24T01:58:01.807Z,91.72
2023-11-24T02:00:34.952Z,91.82
2023-11-24T02:03:07.166Z,92.02
2023-11-24T02:05:41.517Z,92.09
2023-11-24T02:08:13.688Z,91.61
2023-11-24T02:10:46.095Z,91.72
2023-11-24T02:13:18.055Z,91.56
2023-11-24T02:15:50.310Z,90.80
2023-11-24T02:18:22.595Z,90.88
2023-11-24T02:20:54.664Z,89.70
2023-11-24T02:23:26.925Z,89.82
2023-11-24T02:25:58.889Z,89.84
2023-11-24T02:28:30.837Z,89.23
2023-11-24T02:31:04.927Z,89.43
2023-11-24T02:33:37.063Z,89.97
2023-11-24T02:36:18.482Z,90.02
2023-11-24T02:38:51.745Z,89.87
2023-11-24T02:41:24.064Z,89.94
2023-11-24T02:43:56.031Z,89.07
2023-11-24T02:46:28.004Z,88.29
2023-11-24T02:49:00.070Z,88.46
2023-11-24T02:51:32.575Z,88.18
2023-11-24T02:54:04.692Z,88.00
2023-11-24T02:56:36.626Z,87.18
2023-11-24T02:59:08.580Z,87.04
2023-11-24T03:01:42.558Z,86.81
2023-11-24T03:04:14.689Z,86.24
2023-11-24T03:06:46.811Z,85.95
2023-11-24T03:09:23.707Z,86.07
2023-11-24T03:11:56.260Z,85.73
2023-11-24T03:14:29.838Z,84.76
2023-11-24T03:17:02.597Z,84.39
2023-11-24T03:19:34.634Z,84.31
2023-11-24T03:22:08.544Z,84.23
2023-11-24T03:24:40.604Z,84.25
2023-11-24T03:27:13.662Z,84.34
2023-11-24T03:29:45.727Z,83.24
2023-11-24T03:32:17.747Z,82.97
2023-11-24T03:34:50.894Z,82.97
2023-11-24T03:37:22.968Z,82.98
2023-11-24T03:39:55.503Z,83.31
2023-11-24T03:42:27.665Z,82.82
2023-11-24T03:44:59.858Z,82.55
2023-11-24T03:47:32.401Z,82.95
2023-11-24T03:50:04.842Z,82.39
2023-11-24T03:52:37.452Z,82.48
2023-11-24T03:55:13.422Z,82.07
2023-11-24T03:57:47.646Z,81.95
2023-11-24T04:00:20.273Z,81.87
2023-11-24T04:02:52.245Z,82.16
2023-11-24T04:05:25.076Z,82.18
2023-11-24T04:07:57.105Z,81.65
2023-11-24T04:10:29.056Z,81.50
2023-11-24T04:13:01.702Z,81.62
2023-11-24T04:15:33.842Z,81.17
2023-11-24T04:18:06.092Z,81.33
2023-11-24T04:20:38.638Z,81.78
2023-11-24T04:23:15.080Z,82.10
2023-11-24T04:25:49.268Z,81.49
2023-11-24T04:28:23.288Z,81.54
2023-11-24T04:30:55.821Z,82.00
2023-11-24T04:33:27.893Z,81.57
2023-11-24T04:35:59.852Z,81.68
2023-11-24T04:38:33.812Z,81.79
2023-11-24T04:41:05.848Z,81.66
2023-11-24T04:43:37.939Z,81.79
2023-11-24T04:46:13.284Z,81.30
2023-11-24T04:48:45.688Z,81.82
2023-11-24T04:51:17.702Z,82.49
2023-11-24T04:53:49.714Z,82.63
2023-11-24T04:56:21.667Z,82.84
2023-11-24T04:58:53.666Z,83.63
2023-11-24T05:01:29.528Z,84.04
2023-11-24T05:04:03.428Z,84.13
2023-11-24T05:06:35.458Z,84.32
2023-11-24T05:09:08.207Z,84.33
2023-11-24T05:11:40.404Z,84.12
2023-11-24T05:14:12.382Z,84.76
2023-11-24T05:16:44.463Z,85.17
2023-11-24T05:19:17.026Z,85.66
2023-11-24T05:21:49.051Z,85.51
2023-11-24T05:24:21.079Z,85.96
2023-11-24T05:26:55.155Z,86.03
2023-11-24T05:29:28.998Z,86.06
2023-11-24T05:32:01.342Z,85.99
2023-11-24T05:34:33.381Z,86.27
2023-11-24T05:37:08.767Z,86.39
2023-11-24T05:39:40.892Z,85.83
2023-11-24T05:42:13.447Z,85.40
2023-11-24T05:44:45.494Z,85.83
2023-11-24T05:47:17.507Z,85.48
2023-11-24T05:49:50.443Z,85.55
2023-11-24T05:52:22.437Z,85.69
2023-11-24T05:54:58.941Z,86.07
2023-11-24T05:57:31.073Z,86.41
2023-11-24T06:00:03.639Z,86.52
2023-11-24T06:02:44.333Z,86.76
2023-11-24T06:05:17.166Z,86.85
2023-11-24T06:07:52.342Z,86.91
2023-11-24T06:10:26.064Z,86.83
2023-11-24T06:12:58.365Z,86.53
2023-11-24T06:15:30.481Z,86.48
2023-11-24T06:18:02.634Z,85.49
2023-11-24T06:20:34.611Z,85.40
2023-11-24T06:23:06.570Z,85.78
2023-11-24T06:25:38.554Z,86.19
2023-11-24T06:28:10.544Z,86.01
2023-11-24T06:30:42.495Z,86.31
2023-11-24T06:33:14.632Z,85.47
2023-11-24T06:35:46.605Z,85.40
2023-11-24T06:38:18.524Z,85.05
2023-11-24T06:40:50.503Z,84.90
2023-11-24T06:43:22.787Z,84.95
2023-11-24T06:45:54.929Z,85.23
2023-11-24T06:48:26.928Z,85.35
2023-11-24T06:50:58.988Z,85.56
2023-11-24T06:53:30.954Z,85.18
2023-11-24T06:56:03.942Z,84.91
2023-11-24T06:58:35.886Z,84.75
2023-11-24T07:01:08.195Z,84.38
2023-11-24T07:03:40.336Z,84.25
2023-11-24T07:06:13.026Z,84.53
2023-11-24T07:08:45.015Z,84.84
2023-11-24T07:11:17.478Z,84.69
2023-11-24T07:13:50.556Z,84.58
2023-11-24T07:16:23.907Z,84.59
2023-11-24T07:18:56.157Z,84.46
2023-11-24T07:21:28.247Z,84.54
2023-11-24T07:24:00.335Z,84.33
2023-11-24T07:26:32.318Z,84.61
2023-11-24T07:29:04.789Z,84.50
2023-11-24T07:31:36.810Z,84.43
2023-11-24T07:34:08.953Z,84.73
2023-11-24T07:36:41.078Z,84.86
2023-11-24T07:39:13.220Z,84.70
2023-11-24T07:41:45.775Z,84.77
2023-11-24T07:44:17.773Z,84.81
2023-11-24T07:46:49.874Z,84.55
2023-11-24T07:49:21.997Z,84.79
2023-11-24T07:51:54.165Z,84.56
2023-11-24T07:54:26.988Z,84.74
2023-11-24T07:56:59.033Z,84.32
2023-11-24T07:59:32.416Z,84.31
2023-11-24T08:02:05.198Z,84.39
2023-11-24T08:04:37.310Z,84.26
2023-11-24T08:07:10.652Z,83.84
2023-11-24T08:09:42.750Z,83.98
2023-11-24T08:12:14.889Z,83.54
2023-11-24T08:14:46.857Z,83.08
2023-11-24T08:17:18.837Z,82.83
2023-11-24T08:19:51.078Z,82.89
2023-11-24T08:22:23.738Z,83.16
2023-11-24T08:24:57.168Z,83.05
2023-11-24T08:27:29.224Z,82.88
2023-11-24T08:30:03.443Z,82.74
2023-11-24T08:32:35.470Z,82.55
2023-11-24T08:35:09.853Z,82.69
2023-11-24T08:37:42.060Z,82.75
2023-11-24T08:40:18.553Z,82.37
2023-11-24T08:42:50.740Z,82.37
2023-11-24T08:45:23.939Z,82.01
2023-11-24T08:47:56.031Z,81.89
2023-11-24T08:50:29.636Z,82.12
2023-11-24T08:53:01.946Z,82.10
2023-11-24T08:55:34.004Z,81.93
2023-11-24T08:58:06.260Z,81.68
2023-11-24T09:00:38.486Z,81.02
2023-11-24T09:03:10.526Z,80.69
2023-11-24T09:05:42.854Z,80.79
2023-11-24T09:08:18.257Z,80.24
2023-11-24T09:10:51.245Z,80.71
2023-11-24T09:13:23.412Z,80.89
2023-11-24T09:15:55.471Z,80.50
2023-11-24T09:18:27.605Z,80.10
2023-11-24T09:21:01.201Z,79.12
2023-11-24T09:23:33.658Z,78.21
2023-11-24T09:26:08.762Z,77.22
2023-11-24T09:28:41.440Z,76.70
2023-11-24T09:31:14.331Z,76.54
2023-11-24T09:33:46.496Z,76.13
2023-11-24T09:36:18.711Z,75.01
2023-11-24T09:38:52.897Z,74.50
2023-11-24T09:41:25.887Z,73.45
2023-11-24T09:44:01.129Z,72.91
2023-11-24T09:46:42.582Z,72.52
2023-11-24T09:49:22.675Z,72.89
2023-11-24T09:51:56.150Z,72.75
2023-11-24T09:54:28.626Z,72.26
2023-11-24T09:57:00.691Z,72.86
2023-11-24T09:59:33.473Z,72.19
2023-11-24T10:02:07.726Z,72.50
2023-11-24T10:04:40.044Z,72.19
2023-11-24T10:07:23.238Z,71.67
2023-11-24T10:09:55.582Z,72.16
2023-11-24T10:12:28.048Z,70.77
2023-11-24T10:15:00.022Z,71.21
2023-11-24T10:17:34.619Z,70.51
2023-11-24T10:20:12.698Z,70.74
2023-11-24T10:22:45.041Z,70.62
2023-11-24T10:25:20.517Z,70.06
2023-11-24T10:27:56.894Z,70.13
2023-11-24T10:30:28.888Z,70.05
2023-11-24T10:33:01.772Z,69.32
2023-11-24T10:35:34.222Z,69.60
2023-11-24T10:38:08.949Z,69.55
2023-11-24T10:40:41.147Z,69.51
2023-11-24T10:43:13.423Z,69.72
2023-11-24T10:45:48.385Z,69.89
2023-11-24T10:48:28.663Z,70.33
2023-11-24T10:51:07.704Z,70.36
2023-11-24T10:53:49.399Z,69.53
2023-11-24T10:56:22.806Z,69.28
2023-11-24T10:58:57.682Z,69.32
2023-11-24T11:01:30.347Z,69.24
2023-11-24T11:04:04.179Z,68.88
2023-11-24T11:06:44.624Z,69.27
2023-11-24T11:09:30.830Z,69.55
2023-11-24T11:12:32.881Z,69.21
2023-11-24T11:15:05.871Z,69.73
2023-11-24T11:17:39.032Z,69.40
2023-11-24T11:20:16.686Z,68.78
2023-11-24T11:22:50.045Z,68.73
2023-11-24T11:25:43.807Z,67.68
2023-11-24T11:28:52.567Z,66.24
2023-11-24T11:31:29.500Z,66.60
2023-11-24T11:34:13.543Z,66.94
2023-11-24T11:37:13.251Z,67.23
2023-11-24T11:39:55.310Z,67.46
2023-11-24T11:42:33.855Z,68.11
2023-11-24T11:45:17.422Z,67.34
2023-11-24T11:48:00.134Z,67.56
2023-11-24T11:50:35.799Z,67.71
2023-11-24T11:53:09.959Z,67.28
2023-11-24T11:55:42.605Z,67.42
2023-11-24T11:58:15.969Z,67.81
2023-11-24T12:00:49.974Z,67.94
2023-11-24T12:03:24.173Z,67.79
2023-11-24T12:05:58.702Z,68.69
2023-11-24T12:08:30.767Z,68.19
2023-11-24T12:11:03.000Z,67.57
2023-11-24T12:16:08.397Z,68.51
2023-11-24T12:18:42.336Z,68.19
2023-11-24T12:21:14.805Z,67.71
2023-11-24T12:23:47.341Z,67.42
2023-11-24T12:26:19.499Z,67.15
2023-11-24T12:28:51.986Z,66.27
2023-11-24T12:31:28.481Z,66.51
2023-11-24T12:34:01.285Z,66.75
2023-11-24T12:36:34.192Z,66.41
2023-11-24T12:39:07.456Z,66.26
2023-11-24T12:41:39.579Z,66.42
2023-11-24T12:44:14.541Z,66.92
2023-11-24T12:46:46.927Z,66.90
2023-11-24T12:49:19.144Z,67.40
2023-11-24T12:51:51.347Z,67.88
2023-11-24T12:54:23.434Z,67.57
2023-11-24T12:56:55.444Z,67.96
2023-11-24T12:59:27.517Z,67.67
2023-11-24T13:01:59.541Z,67.54
2023-11-24T13:04:31.881Z,68.15
2023-11-24T13:07:05.744Z,68.10
2023-11-24T13:09:39.368Z,67.74
2023-11-24T13:12:18.191Z,67.62
2023-11-24T13:14:51.178Z,67.11
2023-11-24T13:17:23.355Z,67.93
2023-11-24T13:19:55.831Z,67.68
2023-11-24T13:22:27.917Z,68.03
2023-11-24T13:25:00.300Z,68.40
2023-11-24T13:27:34.172Z,68.20
2023-11-24T13:30:11.033Z,68.65
2023-11-24T13:32:43.838Z,68.39
2023-11-24T13:35:17.596Z,68.68
2023-11-24T13:37:51.132Z,68.65
2023-11-24T13:40:27.945Z,68.61
2023-11-24T13:43:00.580Z,68.01
2023-11-24T13:45:36.212Z,67.88
2023-11-24T13:48:08.557Z,67.74
2023-11-24T13:50:41.083Z,67.16
2023-11-24T13:53:13.319Z,67.32
2023-11-24T13:55:45.650Z,67.36
2023-11-24T13:58:18.509Z,67.46
2023-11-24T14:00:53.029Z,67.48
2023-11-24T14:03:25.465Z,67.82
2023-11-24T14:05:57.798Z,67.96
2023-11-24T14:08:30.117Z,68.53
2023-11-24T14:11:04.032Z,68.89
2023-11-24T14:13:37.139Z,69.04
2023-11-24T14:16:10.180Z,69.50
2023-11-24T14:18:42.628Z,69.72
2023-11-24T14:21:14.627Z,70.25
2023-11-24T14:23:46.706Z,69.96
2023-11-24T14:26:19.307Z,70.16
2023-11-24T14:28:51.269Z,70.76
2023-11-24T14:31:23.397Z,70.55
2023-11-24T14:33:55.586Z,71.14
2023-11-24T14:36:28.110Z,70.71
2023-11-24T14:39:00.824Z,70.82
2023-11-24T14:41:33.240Z,71.08
2023-11-24T14:44:05.426Z,71.12
2023-11-24T14:46:37.698Z,71.07
2023-11-24T14:49:10.630Z,70.95
2023-11-24T14:51:42.617Z,70.94
2023-11-24T14:54:15.189Z,71.30
2023-11-24T14:56:49.712Z,71.00
2023-11-24T14:59:22.119Z,71.21
2023-11-24T15:01:59.902Z,70.90
2023-11-24T15:04:33.285Z,70.21
2023-11-24T15:07:09.041Z,70.70
2023-11-24T15:09:44.681Z,71.59
2023-11-24T15:12:16.922Z,72.33
2023-11-24T15:14:49.280Z,72.91
2023-11-24T15:17:21.335Z,73.07
2023-11-24T15:19:55.371Z,72.94
2023-11-24T15:22:28.531Z,73.79
2023-11-24T15:25:00.904Z,73.77
2023-11-24T15:27:33.096Z,74.26
2023-11-24T15:30:06.323Z,73.88
2023-11-24T15:32:38.383Z,73.44
2023-11-24T15:35:11.079Z,73.36
2023-11-24T15:37:43.104Z,73.49
2023-11-24T15:40:21.978Z,73.59
2023-11-24T15:42:56.333Z,73.76
2023-11-24T15:45:29.833Z,73.64
2023-11-24T15:48:07.784Z,73.52
2023-11-24T15:50:42.181Z,73.47
2023-11-24T15:53:15.061Z,73.59
2023-11-24T15:55:48.156Z,73.51
2023-11-24T15:58:24.836Z,73.65
2023-11-24T16:00:58.455Z,73.75
2023-11-24T16:03:31.659Z,73.89
2023-11-24T16:06:08.261Z,73.76
2023-11-24T16:08:46.117Z,73.69
2023-11-24T16:11:26.070Z,73.61
2023-11-24T16:13:59.423Z,73.87
2023-11-24T16:16:32.818Z,74.08
2023-11-24T16:19:04.998Z,73.91
2023-11-24T16:21:37.497Z,73.87
2023-11-24T16:24:10.683Z,73.78
2023-11-24T16:26:42.863Z,73.53
2023-11-24T16:29:15.540Z,73.48
2023-11-24T16:31:49.348Z,73.42
2023-11-24T16:34:24.302Z,73.54
2023-11-24T16:36:57.726Z,73.81
2023-11-24T16:39:31.824Z,73.63
2023-11-24T16:42:03.848Z,73.77
2023-11-24T16:44:39.550Z,73.56
2023-11-24T16:47:15.111Z,74.03
2023-11-24T16:49:47.563Z,73.79
2023-11-24T16:52:19.567Z,73.80
2023-11-24T16:54:51.795Z,73.67
2023-11-24T16:57:26.950Z,73.73
2023-11-24T16:59:59.039Z,73.63
2023-11-24T17:02:31.761Z,73.64
2023-11-24T17:05:04.620Z,73.73
2023-11-24T17:07:36.964Z,73.57
2023-11-24T17:10:11.312Z,73.53
2023-11-24T17:12:43.344Z,73.73
2023-11-24T17:15:17.735Z,73.45
2023-11-24T17:17:49.760Z,73.53
2023-11-24T17:20:21.919Z,73.31
2023-11-24T17:22:54.662Z,73.53
2023-11-24T17:25:35.175Z,73.34
2023-11-24T17:28:09.360Z,73.32
2023-11-24T17:30:41.535Z,73.44
2023-11-24T17:33:13.788Z,73.29
2023-11-24T17:35:45.897Z,73.68
2023-11-24T17:38:22.083Z,73.67
2023-11-24T17:40:52.707Z,73.89
2023-11-24T17:43:24.665Z,73.87
2023-11-24T17:45:57.795Z,74.55
2023-11-24T17:48:30.047Z,74.53
2023-11-24T17:51:03.736Z,74.90
2023-11-24T17:53:37.031Z,74.77
2023-11-24T17:56:10.019Z,74.90
2023-11-24T17:58:42.071Z,74.54
2023-11-24T18:01:14.329Z,74.66
2023-11-24T18:03:47.408Z,74.53
2023-11-24T18:06:20.118Z,74.73
2023-11-24T18:08:52.302Z,74.68
2023-11-24T18:11:24.390Z,74.57
2023-11-24T18:13:57.138Z,74.73
2023-11-24T18:16:29.930Z,74.54
2023-11-24T18:19:02.198Z,74.77
2023-11-24T18:21:34.621Z,74.61
2023-11-24T18:24:08.260Z,74.64
2023-11-24T18:26:41.867Z,74.62
2023-11-24T18:29:15.290Z,74.74
2023-11-24T18:31:49.160Z,74.45
2023-11-24T18:34:28.347Z,74.77
2023-11-24T18:37:00.672Z,74.75
2023-11-24T18:39:33.432Z,74.59
2023-11-24T18:42:07.327Z,74.86
2023-11-24T18:44:40.311Z,74.87
2023-11-24T18:47:19.281Z,74.41
2023-11-24T18:49:52.212Z,74.63
2023-11-24T18:52:24.676Z,74.28
2023-11-24T18:54:57.651Z,74.29
2023-11-24T18:57:30.052Z,74.14
2023-11-24T19:00:08.193Z,74.05
2023-11-24T19:02:40.371Z,74.45
2023-11-24T19:05:14.808Z,74.35
2023-11-24T19:07:47.209Z,74.25
2023-11-24T19:10:20.230Z,74.25
2023-11-24T19:12:55.241Z,74.20
2023-11-24T19:15:28.715Z,74.69
2023-11-24T19:18:00.957Z,74.45
2023-11-24T19:20:33.654Z,74.32
2023-11-24T19:23:05.949Z,74.23
2023-11-24T19:25:38.366Z,74.19
2023-11-24T19:28:14.658Z,73.98
2023-11-24T19:30:51.747Z,73.90
2023-11-24T19:33:24.351Z,74.08
2023-11-24T19:35:57.001Z,73.84
2023-11-24T19:38:29.340Z,74.06
2023-11-24T19:41:01.677Z,74.60
2023-11-24T19:43:34.905Z,74.43
2023-11-24T19:46:07.960Z,74.44
2023-11-24T19:48:40.277Z,74.75
2023-11-24T19:51:12.702Z,74.94
2023-11-24T19:53:44.857Z,75.08
2023-11-24T19:56:18.306Z,75.05
2023-11-24T19:58:50.575Z,75.09
2023-11-24T20:01:27.574Z,75.11
2023-11-24T20:03:59.953Z,75.08
2023-11-24T20:06:33.122Z,74.74
2023-11-24T20:09:11.230Z,74.86
2023-11-24T20:11:44.134Z,74.97
2023-11-24T20:14:18.669Z,75.83
2023-11-24T20:16:52.770Z,75.90
2023-11-24T20:19:25.111Z,75.96
2023-11-24T20:21:57.450Z,75.64
2023-11-24T20:24:31.071Z,75.50
2023-11-24T20:27:03.287Z,75.72
2023-11-24T20:29:35.482Z,76.20
2023-11-24T20:32:08.678Z,76.24
2023-11-24T20:34:40.986Z,76.33
2023-11-24T20:37:14.407Z,76.49
2023-11-24T20:39:47.879Z,76.71
2023-11-24T20:42:20.154Z,76.89
2023-11-24T20:44:53.021Z,76.68
2023-11-24T20:47:25.221Z,76.85
2023-11-24T20:49:57.461Z,76.81
2023-11-24T20:52:29.938Z,77.32
2023-11-24T20:55:02.196Z,76.98
2023-11-24T20:57:34.337Z,77.45
2023-11-24T21:00:12.521Z,77.34
2023-11-24T21:02:46.225Z,77.49
2023-11-24T21:05:19.664Z,77.63
2023-11-24T21:07:52.548Z,77.45
2023-11-24T21:10:25.091Z,77.52
2023-11-24T21:12:57.294Z,77.39
2023-11-24T21:15:30.004Z,77.74
2023-11-24T21:18:06.502Z,77.21
2023-11-24T21:20:38.817Z,77.39
2023-11-24T21:23:13.243Z,77.20
2023-11-24T21:25:45.607Z,77.29
2023-11-24T21:28:20.260Z,76.96
2023-11-24T21:30:52.466Z,77.16
2023-11-24T21:33:24.659Z,77.04
2023-11-24T21:35:56.810Z,76.63
2023-11-24T21:38:30.353Z,76.77
2023-11-24T21:41:02.515Z,76.58
2023-11-24T21:43:34.747Z,76.84
2023-11-24T21:46:07.196Z,76.62
2023-11-24T21:48:39.603Z,76.31
2023-11-24T21:51:11.743Z,75.98
2023-11-24T21:53:44.283Z,75.65
2023-11-24T21:56:24.690Z,75.42
2023-11-24T21:58:57.185Z,75.51
2023-11-24T22:01:30.223Z,75.45
2023-11-24T22:04:02.577Z,75.79
2023-11-24T22:06:37.290Z,75.76
2023-11-24T22:09:09.524Z,75.35
2023-11-24T22:11:41.666Z,75.53
2023-11-24T22:14:13.804Z,75.21
2023-11-24T22:16:46.126Z,75.20
2023-11-24T22:19:20.536Z,75.16
2023-11-24T22:21:53.945Z,75.04
2023-11-24T22:24:26.074Z,75.27
2023-11-24T22:27:02.270Z,75.21
2023-11-24T22:29:33.106Z,75.32
2023-11-24T22:32:06.926Z,75.34
2023-11-24T22:34:39.228Z,75.25
2023-11-24T22:37:12.414Z,75.48
2023-11-24T22:39:44.532Z,75.58
2023-11-24T22:42:16.582Z,75.76
2023-11-24T22:44:51.073Z,75.71
2023-11-24T22:47:25.502Z,75.99
2023-11-24T22:49:57.600Z,75.96
2023-11-24T22:52:30.070Z,76.20
2023-11-24T22:55:02.592Z,76.23
2023-11-24T22:57:35.062Z,76.25
2023-11-24T23:00:30.051Z,76.41
2023-11-24T23:03:02.585Z,76.56
2023-11-24T23:05:35.316Z,76.60
2023-11-24T23:08:08.046Z,76.77
2023-11-24T23:10:40.077Z,76.82
2023-11-24T23:13:12.153Z,76.94
2023-11-24T23:15:44.887Z,76.85
2023-11-24T23:18:17.686Z,76.94
2023-11-24T23:20:50.647Z,76.73
2023-11-24T23:23:27.879Z,76.42
2023-11-24T23:25:59.788Z,76.53
2023-11-24T23:28:31.999Z,76.57
2023-11-24T23:31:07.102Z,76.60
2023-11-24T23:33:40.002Z,76.38
2023-11-24T23:36:14.505Z,76.54
2023-11-24T23:38:47.942Z,76.45
2023-11-24T23:41:22.593Z,76.88
2023-11-24T23:43:55.089Z,77.17
2023-11-24T23:46:27.230Z,77.46
2023-11-24T23:49:00.141Z,77.59
2023-11-24T23:51:32.395Z,77.92
2023-11-24T23:54:04.774Z,78.05
2023-11-24T23:56:36.731Z,78.16
2023-11-24T23:59:08.949Z,78.08
